sensor_id;sensor_type;location;lat;lon;timestamp;P1;durP1;ratioP1;P2;durP2;ratioP2
6751;SDS011;3413;47.680;9.166;2023-12-20T00:00:54;6.10;;;2.50;;
6751;SDS011;3413;47.680;9.166;2023-12-20T00:05:56;3.07;;;1.90;;
6751;SDS011;3413;47.680;9.166;2023-12-20T00:10:58;3.80;;;2.03;;
6751;SDS011;3413;47.680;9.166;2023-12-20T00:16:00;10.30;;;2.10;;
6751;SDS011;3413;47.680;9.166;2023-12-20T00:21:02;3.30;;;1.93;;
6751;SDS011;3413;47.680;9.166;2023-12-20T00:26:05;4.77;;;1.80;;
6751;SDS011;3413;47.680;9.166;2023-12-20T00:31:06;5.03;;;2.30;;
6751;SDS011;3413;47.680;9.166;2023-12-20T00:36:09;4.00;;;1.83;;
6751;SDS011;3413;47.680;9.166;2023-12-20T00:41:12;3.73;;;2.27;;
6751;SDS011;3413;47.680;9.166;2023-12-20T00:46:20;6.73;;;2.50;;
6751;SDS011;3413;47.680;9.166;2023-12-20T00:51:25;8.80;;;2.27;;
6751;SDS011;3413;47.680;9.166;2023-12-20T00:56:29;3.13;;;1.70;;
6751;SDS011;3413;47.680;9.166;2023-12-20T01:01:34;4.30;;;2.33;;
6751;SDS011;3413;47.680;9.166;2023-12-20T01:06:40;5.43;;;2.30;;
6751;SDS011;3413;47.680;9.166;2023-12-20T01:11:45;7.50;;;2.30;;
6751;SDS011;3413;47.680;9.166;2023-12-20T01:16:51;5.07;;;2.60;;
6751;SDS011;3413;47.680;9.166;2023-12-20T01:22:00;5.07;;;2.23;;
6751;SDS011;3413;47.680;9.166;2023-12-20T01:27:04;4.90;;;2.33;;
6751;SDS011;3413;47.680;9.166;2023-12-20T01:32:08;5.87;;;2.33;;
6751;SDS011;3413;47.680;9.166;2023-12-20T01:37:13;5.43;;;2.20;;
6751;SDS011;3413;47.680;9.166;2023-12-20T01:42:20;4.37;;;2.40;;
6751;SDS011;3413;47.680;9.166;2023-12-20T01:47:25;2.57;;;1.90;;
6751;SDS011;3413;47.680;9.166;2023-12-20T01:52:29;6.00;;;2.20;;
6751;SDS011;3413;47.680;9.166;2023-12-20T01:58:16;4.40;;;2.30;;
6751;SDS011;3413;47.680;9.166;2023-12-20T02:24:32;9.27;;;2.80;;
6751;SDS011;3413;47.680;9.166;2023-12-20T02:35:33;6.50;;;2.90;;
6751;SDS011;3413;47.680;9.166;2023-12-20T02:40:41;7.20;;;2.83;;
6751;SDS011;3413;47.680;9.166;2023-12-20T02:46:09;6.43;;;3.17;;
6751;SDS011;3413;47.680;9.166;2023-12-20T02:51:17;6.30;;;2.77;;
6751;SDS011;3413;47.680;9.166;2023-12-20T02:56:24;7.10;;;2.77;;
6751;SDS011;3413;47.680;9.166;2023-12-20T03:18:05;6.53;;;2.90;;
6751;SDS011;3413;47.680;9.166;2023-12-20T03:40:37;5.90;;;3.40;;
6751;SDS011;3413;47.680;9.166;2023-12-20T03:45:42;7.03;;;3.20;;
6751;SDS011;3413;47.680;9.166;2023-12-20T03:56:30;6.63;;;3.20;;
6751;SDS011;3413;47.680;9.166;2023-12-20T04:01:33;6.80;;;3.33;;
6751;SDS011;3413;47.680;9.166;2023-12-20T04:06:36;9.00;;;3.30;;
6751;SDS011;3413;47.680;9.166;2023-12-20T04:11:39;5.67;;;2.90;;
6751;SDS011;3413;47.680;9.166;2023-12-20T04:16:41;5.53;;;2.83;;
6751;SDS011;3413;47.680;9.166;2023-12-20T04:21:48;11.43;;;3.33;;
6751;SDS011;3413;47.680;9.166;2023-12-20T04:26:50;7.20;;;3.10;;
6751;SDS011;3413;47.680;9.166;2023-12-20T04:31:53;5.77;;;3.07;;
6751;SDS011;3413;47.680;9.166;2023-12-20T04:36:56;6.20;;;3.23;;
6751;SDS011;3413;47.680;9.166;2023-12-20T04:41:58;6.60;;;2.80;;
6751;SDS011;3413;47.680;9.166;2023-12-20T04:47:00;6.67;;;3.10;;
6751;SDS011;3413;47.680;9.166;2023-12-20T04:52:02;5.80;;;2.80;;
6751;SDS011;3413;47.680;9.166;2023-12-20T04:57:05;7.60;;;3.57;;
6751;SDS011;3413;47.680;9.166;2023-12-20T05:02:07;9.93;;;3.77;;
6751;SDS011;3413;47.680;9.166;2023-12-20T05:07:10;5.73;;;2.97;;
6751;SDS011;3413;47.680;9.166;2023-12-20T05:12:13;6.23;;;3.03;;
6751;SDS011;3413;47.680;9.166;2023-12-20T05:17:15;8.00;;;3.50;;
6751;SDS011;3413;47.680;9.166;2023-12-20T05:22:17;5.70;;;3.30;;
6751;SDS011;3413;47.680;9.166;2023-12-20T05:27:20;7.07;;;3.40;;
6751;SDS011;3413;47.680;9.166;2023-12-20T05:32:23;7.90;;;3.43;;
6751;SDS011;3413;47.680;9.166;2023-12-20T05:37:26;6.70;;;3.10;;
6751;SDS011;3413;47.680;9.166;2023-12-20T05:42:30;7.50;;;3.13;;
6751;SDS011;3413;47.680;9.166;2023-12-20T05:47:33;5.53;;;3.30;;
6751;SDS011;3413;47.680;9.166;2023-12-20T05:52:35;5.20;;;2.70;;
6751;SDS011;3413;47.680;9.166;2023-12-20T05:57:38;7.43;;;2.90;;
6751;SDS011;3413;47.680;9.166;2023-12-20T06:02:40;7.67;;;2.50;;
6751;SDS011;3413;47.680;9.166;2023-12-20T06:07:43;5.60;;;2.67;;
6751;SDS011;3413;47.680;9.166;2023-12-20T06:12:52;11.97;;;2.67;;
6751;SDS011;3413;47.680;9.166;2023-12-20T06:17:54;5.43;;;2.60;;
6751;SDS011;3413;47.680;9.166;2023-12-20T06:23:00;7.30;;;2.80;;
6751;SDS011;3413;47.680;9.166;2023-12-20T06:28:04;6.40;;;2.83;;
6751;SDS011;3413;47.680;9.166;2023-12-20T06:33:16;4.90;;;2.93;;
6751;SDS011;3413;47.680;9.166;2023-12-20T06:38:27;5.93;;;3.03;;
6751;SDS011;3413;47.680;9.166;2023-12-20T06:43:29;6.00;;;3.33;;
6751;SDS011;3413;47.680;9.166;2023-12-20T06:48:49;7.87;;;3.30;;
6751;SDS011;3413;47.680;9.166;2023-12-20T06:53:51;6.03;;;3.00;;
6751;SDS011;3413;47.680;9.166;2023-12-20T06:58:53;7.63;;;3.37;;
6751;SDS011;3413;47.680;9.166;2023-12-20T07:03:55;7.07;;;3.17;;
6751;SDS011;3413;47.680;9.166;2023-12-20T07:08:57;9.30;;;3.50;;
6751;SDS011;3413;47.680;9.166;2023-12-20T07:13:59;6.30;;;3.47;;
6751;SDS011;3413;47.680;9.166;2023-12-20T07:19:02;6.20;;;3.30;;
6751;SDS011;3413;47.680;9.166;2023-12-20T07:24:04;6.13;;;3.60;;
6751;SDS011;3413;47.680;9.166;2023-12-20T07:29:06;6.67;;;2.93;;
6751;SDS011;3413;47.680;9.166;2023-12-20T07:34:08;4.97;;;2.60;;
6751;SDS011;3413;47.680;9.166;2023-12-20T07:39:10;6.00;;;2.83;;
6751;SDS011;3413;47.680;9.166;2023-12-20T07:44:12;6.53;;;2.90;;
6751;SDS011;3413;47.680;9.166;2023-12-20T07:49:14;5.47;;;2.30;;
6751;SDS011;3413;47.680;9.166;2023-12-20T07:54:16;4.40;;;2.30;;
6751;SDS011;3413;47.680;9.166;2023-12-20T07:59:18;4.57;;;2.20;;
6751;SDS011;3413;47.680;9.166;2023-12-20T08:04:32;4.73;;;2.23;;
6751;SDS011;3413;47.680;9.166;2023-12-20T08:09:34;4.27;;;2.47;;
6751;SDS011;3413;47.680;9.166;2023-12-20T08:14:38;3.33;;;2.00;;
6751;SDS011;3413;47.680;9.166;2023-12-20T08:19:40;4.30;;;2.30;;
6751;SDS011;3413;47.680;9.166;2023-12-20T08:24:42;5.67;;;1.83;;
6751;SDS011;3413;47.680;9.166;2023-12-20T08:29:44;4.57;;;2.50;;
6751;SDS011;3413;47.680;9.166;2023-12-20T08:34:46;2.83;;;2.00;;
6751;SDS011;3413;47.680;9.166;2023-12-20T08:39:48;6.40;;;2.87;;
6751;SDS011;3413;47.680;9.166;2023-12-20T08:44:50;3.53;;;2.17;;
6751;SDS011;3413;47.680;9.166;2023-12-20T08:49:52;4.03;;;2.30;;
6751;SDS011;3413;47.680;9.166;2023-12-20T08:54:58;3.00;;;2.00;;
6751;SDS011;3413;47.680;9.166;2023-12-20T09:00:00;3.20;;;2.03;;
6751;SDS011;3413;47.680;9.166;2023-12-20T09:05:02;4.63;;;2.37;;
6751;SDS011;3413;47.680;9.166;2023-12-20T09:10:04;7.80;;;1.50;;
6751;SDS011;3413;47.680;9.166;2023-12-20T09:15:07;3.13;;;1.63;;
6751;SDS011;3413;47.680;9.166;2023-12-20T09:20:09;3.43;;;1.33;;
6751;SDS011;3413;47.680;9.166;2023-12-20T09:25:12;3.30;;;1.67;;
6751;SDS011;3413;47.680;9.166;2023-12-20T09:30:15;2.53;;;1.33;;
6751;SDS011;3413;47.680;9.166;2023-12-20T09:35:28;2.00;;;1.30;;
6751;SDS011;3413;47.680;9.166;2023-12-20T09:40:30;2.13;;;1.30;;
6751;SDS011;3413;47.680;9.166;2023-12-20T09:45:35;2.50;;;1.30;;
6751;SDS011;3413;47.680;9.166;2023-12-20T09:50:37;2.50;;;1.30;;
6751;SDS011;3413;47.680;9.166;2023-12-20T09:55:39;4.77;;;1.27;;
6751;SDS011;3413;47.680;9.166;2023-12-20T10:00:42;1.97;;;1.00;;
6751;SDS011;3413;47.680;9.166;2023-12-20T10:05:44;2.43;;;1.30;;
6751;SDS011;3413;47.680;9.166;2023-12-20T10:10:48;3.20;;;1.20;;
6751;SDS011;3413;47.680;9.166;2023-12-20T10:15:50;1.93;;;1.10;;
6751;SDS011;3413;47.680;9.166;2023-12-20T10:20:52;2.30;;;1.27;;
6751;SDS011;3413;47.680;9.166;2023-12-20T10:25:58;2.80;;;1.43;;
6751;SDS011;3413;47.680;9.166;2023-12-20T10:31:01;1.60;;;1.20;;
6751;SDS011;3413;47.680;9.166;2023-12-20T10:36:03;1.60;;;1.13;;
6751;SDS011;3413;47.680;9.166;2023-12-20T10:41:07;1.63;;;1.00;;
6751;SDS011;3413;47.680;9.166;2023-12-20T10:46:11;1.80;;;1.00;;
6751;SDS011;3413;47.680;9.166;2023-12-20T10:51:14;4.10;;;1.10;;
6751;SDS011;3413;47.680;9.166;2023-12-20T10:56:19;2.10;;;1.07;;
6751;SDS011;3413;47.680;9.166;2023-12-20T11:01:27;1.93;;;1.20;;
6751;SDS011;3413;47.680;9.166;2023-12-20T11:12:13;2.97;;;1.50;;
6751;SDS011;3413;47.680;9.166;2023-12-20T11:17:19;1.50;;;0.90;;
6751;SDS011;3413;47.680;9.166;2023-12-20T11:22:25;1.83;;;1.20;;
6751;SDS011;3413;47.680;9.166;2023-12-20T11:27:30;1.00;;;0.70;;
6751;SDS011;3413;47.680;9.166;2023-12-20T11:32:36;1.40;;;0.80;;
6751;SDS011;3413;47.680;9.166;2023-12-20T11:37:38;1.20;;;0.80;;
6751;SDS011;3413;47.680;9.166;2023-12-20T11:42:45;1.47;;;0.90;;
6751;SDS011;3413;47.680;9.166;2023-12-20T11:47:51;1.30;;;0.90;;
6751;SDS011;3413;47.680;9.166;2023-12-20T11:52:54;1.17;;;0.87;;
6751;SDS011;3413;47.680;9.166;2023-12-20T11:57:57;1.77;;;0.87;;
6751;SDS011;3413;47.680;9.166;2023-12-20T12:02:59;0.90;;;0.73;;
6751;SDS011;3413;47.680;9.166;2023-12-20T12:08:01;1.83;;;0.87;;
6751;SDS011;3413;47.680;9.166;2023-12-20T12:13:06;1.70;;;0.90;;
6751;SDS011;3413;47.680;9.166;2023-12-20T12:18:08;2.23;;;1.20;;
6751;SDS011;3413;47.680;9.166;2023-12-20T12:23:11;1.97;;;1.00;;
6751;SDS011;3413;47.680;9.166;2023-12-20T12:28:13;1.30;;;0.87;;
6751;SDS011;3413;47.680;9.166;2023-12-20T12:33:15;1.10;;;0.63;;
6751;SDS011;3413;47.680;9.166;2023-12-20T12:38:22;1.50;;;0.90;;
6751;SDS011;3413;47.680;9.166;2023-12-20T12:43:26;1.10;;;0.70;;
6751;SDS011;3413;47.680;9.166;2023-12-20T12:48:31;1.20;;;0.80;;
6751;SDS011;3413;47.680;9.166;2023-12-20T12:53:37;1.00;;;0.80;;
6751;SDS011;3413;47.680;9.166;2023-12-20T12:58:46;1.60;;;1.20;;
6751;SDS011;3413;47.680;9.166;2023-12-20T13:04:08;1.27;;;0.70;;
6751;SDS011;3413;47.680;9.166;2023-12-20T13:09:25;1.67;;;1.00;;
6751;SDS011;3413;47.680;9.166;2023-12-20T13:14:28;3.90;;;1.30;;
6751;SDS011;3413;47.680;9.166;2023-12-20T13:19:31;1.40;;;1.00;;
6751;SDS011;3413;47.680;9.166;2023-12-20T13:41:12;2.03;;;0.80;;
6751;SDS011;3413;47.680;9.166;2023-12-20T13:46:14;1.40;;;0.77;;
6751;SDS011;3413;47.680;9.166;2023-12-20T14:02:22;1.67;;;1.07;;
6751;SDS011;3413;47.680;9.166;2023-12-20T14:07:24;1.00;;;0.80;;
6751;SDS011;3413;47.680;9.166;2023-12-20T14:17:59;1.80;;;0.90;;
6751;SDS011;3413;47.680;9.166;2023-12-20T14:23:02;1.77;;;0.83;;
6751;SDS011;3413;47.680;9.166;2023-12-20T14:28:05;1.37;;;0.93;;
6751;SDS011;3413;47.680;9.166;2023-12-20T14:33:08;3.83;;;1.30;;
6751;SDS011;3413;47.680;9.166;2023-12-20T14:38:11;1.60;;;1.03;;
6751;SDS011;3413;47.680;9.166;2023-12-20T14:43:17;1.67;;;0.80;;
6751;SDS011;3413;47.680;9.166;2023-12-20T14:48:19;3.00;;;1.10;;
6751;SDS011;3413;47.680;9.166;2023-12-20T14:53:24;1.93;;;1.10;;
6751;SDS011;3413;47.680;9.166;2023-12-20T14:58:28;1.00;;;0.70;;
6751;SDS011;3413;47.680;9.166;2023-12-20T15:03:31;1.80;;;0.97;;
6751;SDS011;3413;47.680;9.166;2023-12-20T15:08:34;3.00;;;1.50;;
6751;SDS011;3413;47.680;9.166;2023-12-20T15:13:37;2.57;;;1.10;;
6751;SDS011;3413;47.680;9.166;2023-12-20T15:18:42;2.60;;;0.80;;
6751;SDS011;3413;47.680;9.166;2023-12-20T15:23:45;1.67;;;0.87;;
6751;SDS011;3413;47.680;9.166;2023-12-20T15:28:54;3.00;;;1.33;;
6751;SDS011;3413;47.680;9.166;2023-12-20T15:33:58;1.50;;;1.20;;
6751;SDS011;3413;47.680;9.166;2023-12-20T15:39:01;3.27;;;1.50;;
6751;SDS011;3413;47.680;9.166;2023-12-20T15:44:05;2.50;;;1.40;;
6751;SDS011;3413;47.680;9.166;2023-12-20T15:49:08;3.13;;;1.30;;
6751;SDS011;3413;47.680;9.166;2023-12-20T15:54:13;2.23;;;1.17;;
6751;SDS011;3413;47.680;9.166;2023-12-20T15:59:17;3.53;;;1.40;;
6751;SDS011;3413;47.680;9.166;2023-12-20T16:04:20;2.93;;;1.70;;
6751;SDS011;3413;47.680;9.166;2023-12-20T16:09:22;8.00;;;1.73;;
6751;SDS011;3413;47.680;9.166;2023-12-20T16:14:24;3.17;;;1.47;;
6751;SDS011;3413;47.680;9.166;2023-12-20T16:19:29;4.20;;;1.33;;
6751;SDS011;3413;47.680;9.166;2023-12-20T16:24:31;3.70;;;1.20;;
6751;SDS011;3413;47.680;9.166;2023-12-20T16:29:33;10.80;;;1.30;;
6751;SDS011;3413;47.680;9.166;2023-12-20T16:34:36;2.10;;;1.10;;
6751;SDS011;3413;47.680;9.166;2023-12-20T16:39:38;1.40;;;0.83;;
6751;SDS011;3413;47.680;9.166;2023-12-20T16:44:41;2.33;;;1.00;;
6751;SDS011;3413;47.680;9.166;2023-12-20T16:49:43;1.70;;;0.93;;
6751;SDS011;3413;47.680;9.166;2023-12-20T16:54:45;3.63;;;1.33;;
6751;SDS011;3413;47.680;9.166;2023-12-20T16:59:47;15.13;;;1.97;;
6751;SDS011;3413;47.680;9.166;2023-12-20T17:04:49;2.83;;;0.87;;
6751;SDS011;3413;47.680;9.166;2023-12-20T17:09:51;2.83;;;0.87;;
6751;SDS011;3413;47.680;9.166;2023-12-20T17:14:52;4.20;;;1.03;;
6751;SDS011;3413;47.680;9.166;2023-12-20T17:19:55;1.90;;;0.93;;
6751;SDS011;3413;47.680;9.166;2023-12-20T17:24:58;5.00;;;1.10;;
6751;SDS011;3413;47.680;9.166;2023-12-20T17:30:00;4.47;;;1.37;;
6751;SDS011;3413;47.680;9.166;2023-12-20T17:35:03;5.13;;;1.00;;
6751;SDS011;3413;47.680;9.166;2023-12-20T17:40:05;3.00;;;1.17;;
6751;SDS011;3413;47.680;9.166;2023-12-20T17:45:08;3.80;;;1.00;;
6751;SDS011;3413;47.680;9.166;2023-12-20T17:50:13;6.70;;;1.00;;
6751;SDS011;3413;47.680;9.166;2023-12-20T17:55:19;2.40;;;1.00;;
6751;SDS011;3413;47.680;9.166;2023-12-20T18:00:23;2.80;;;1.20;;
6751;SDS011;3413;47.680;9.166;2023-12-20T18:05:27;4.33;;;1.20;;
6751;SDS011;3413;47.680;9.166;2023-12-20T18:10:29;3.90;;;1.87;;
6751;SDS011;3413;47.680;9.166;2023-12-20T18:15:35;5.20;;;0.70;;
6751;SDS011;3413;47.680;9.166;2023-12-20T18:20:40;2.13;;;1.10;;
6751;SDS011;3413;47.680;9.166;2023-12-20T18:25:42;2.77;;;1.20;;
6751;SDS011;3413;47.680;9.166;2023-12-20T18:30:45;1.83;;;1.07;;
6751;SDS011;3413;47.680;9.166;2023-12-20T18:35:48;2.77;;;1.13;;
6751;SDS011;3413;47.680;9.166;2023-12-20T18:40:50;1.73;;;0.90;;
6751;SDS011;3413;47.680;9.166;2023-12-20T18:45:52;5.60;;;1.00;;
6751;SDS011;3413;47.680;9.166;2023-12-20T18:50:57;1.83;;;1.00;;
6751;SDS011;3413;47.680;9.166;2023-12-20T18:56:00;7.83;;;1.53;;
6751;SDS011;3413;47.680;9.166;2023-12-20T19:01:02;6.80;;;1.57;;
6751;SDS011;3413;47.680;9.166;2023-12-20T19:06:05;2.63;;;1.00;;
6751;SDS011;3413;47.680;9.166;2023-12-20T19:11:08;2.33;;;1.07;;
6751;SDS011;3413;47.680;9.166;2023-12-20T19:16:10;5.43;;;1.60;;
6751;SDS011;3413;47.680;9.166;2023-12-20T19:21:13;3.20;;;1.03;;
6751;SDS011;3413;47.680;9.166;2023-12-20T19:26:16;4.50;;;1.10;;
6751;SDS011;3413;47.680;9.166;2023-12-20T19:31:18;2.67;;;1.10;;
6751;SDS011;3413;47.680;9.166;2023-12-20T19:36:23;2.80;;;1.30;;
6751;SDS011;3413;47.680;9.166;2023-12-20T19:41:26;1.90;;;0.90;;
6751;SDS011;3413;47.680;9.166;2023-12-20T19:46:28;5.97;;;1.13;;
6751;SDS011;3413;47.680;9.166;2023-12-20T19:51:30;2.90;;;1.20;;
6751;SDS011;3413;47.680;9.166;2023-12-20T19:56:32;1.87;;;1.00;;
6751;SDS011;3413;47.680;9.166;2023-12-20T20:01:35;4.03;;;1.40;;
6751;SDS011;3413;47.680;9.166;2023-12-20T20:06:41;1.70;;;0.90;;
6751;SDS011;3413;47.680;9.166;2023-12-20T20:11:44;1.60;;;0.90;;
6751;SDS011;3413;47.680;9.166;2023-12-20T20:16:49;6.60;;;1.30;;
6751;SDS011;3413;47.680;9.166;2023-12-20T20:22:00;4.23;;;1.10;;
6751;SDS011;3413;47.680;9.166;2023-12-20T20:27:02;3.97;;;0.90;;
6751;SDS011;3413;47.680;9.166;2023-12-20T20:32:08;2.70;;;0.90;;
6751;SDS011;3413;47.680;9.166;2023-12-20T20:38:09;2.00;;;1.07;;
6751;SDS011;3413;47.680;9.166;2023-12-20T20:43:51;4.27;;;1.10;;
6751;SDS011;3413;47.680;9.166;2023-12-20T20:49:00;5.10;;;0.93;;
6751;SDS011;3413;47.680;9.166;2023-12-20T20:54:37;2.10;;;0.90;;
6751;SDS011;3413;47.680;9.166;2023-12-20T20:59:40;3.77;;;1.20;;
6751;SDS011;3413;47.680;9.166;2023-12-20T21:04:45;2.80;;;1.07;;
6751;SDS011;3413;47.680;9.166;2023-12-20T21:09:52;2.80;;;1.00;;
6751;SDS011;3413;47.680;9.166;2023-12-20T21:14:54;1.87;;;1.00;;
6751;SDS011;3413;47.680;9.166;2023-12-20T21:19:58;3.40;;;1.20;;
6751;SDS011;3413;47.680;9.166;2023-12-20T21:25:00;3.70;;;0.87;;
6751;SDS011;3413;47.680;9.166;2023-12-20T21:30:03;1.67;;;0.77;;
6751;SDS011;3413;47.680;9.166;2023-12-20T21:35:07;3.13;;;1.20;;
6751;SDS011;3413;47.680;9.166;2023-12-20T21:40:10;1.70;;;1.03;;
6751;SDS011;3413;47.680;9.166;2023-12-20T21:45:13;5.20;;;1.43;;
6751;SDS011;3413;47.680;9.166;2023-12-20T21:50:16;1.43;;;0.90;;
6751;SDS011;3413;47.680;9.166;2023-12-20T21:55:18;1.10;;;0.63;;
6751;SDS011;3413;47.680;9.166;2023-12-20T22:00:20;4.07;;;1.10;;
6751;SDS011;3413;47.680;9.166;2023-12-20T22:05:22;4.37;;;1.40;;
6751;SDS011;3413;47.680;9.166;2023-12-20T22:10:26;7.47;;;1.13;;
6751;SDS011;3413;47.680;9.166;2023-12-20T22:15:29;1.43;;;0.83;;
6751;SDS011;3413;47.680;9.166;2023-12-20T22:20:31;3.23;;;0.80;;
6751;SDS011;3413;47.680;9.166;2023-12-20T22:25:33;2.17;;;1.20;;
6751;SDS011;3413;47.680;9.166;2023-12-20T22:30:36;3.47;;;1.17;;
6751;SDS011;3413;47.680;9.166;2023-12-20T22:35:40;2.27;;;1.20;;
6751;SDS011;3413;47.680;9.166;2023-12-20T22:40:44;1.50;;;0.80;;
6751;SDS011;3413;47.680;9.166;2023-12-20T22:45:46;1.10;;;0.80;;
6751;SDS011;3413;47.680;9.166;2023-12-20T22:50:49;1.80;;;1.10;;
6751;SDS011;3413;47.680;9.166;2023-12-20T22:55:51;3.03;;;1.07;;
6751;SDS011;3413;47.680;9.166;2023-12-20T23:00:54;1.50;;;0.70;;
6751;SDS011;3413;47.680;9.166;2023-12-20T23:06:01;3.90;;;1.30;;
6751;SDS011;3413;47.680;9.166;2023-12-20T23:11:25;1.77;;;0.97;;
6751;SDS011;3413;47.680;9.166;2023-12-20T23:16:29;1.80;;;0.93;;
6751;SDS011;3413;47.680;9.166;2023-12-20T23:21:33;1.80;;;1.10;;
6751;SDS011;3413;47.680;9.166;2023-12-20T23:26:37;2.20;;;1.00;;
6751;SDS011;3413;47.680;9.166;2023-12-20T23:31:40;2.20;;;1.00;;
6751;SDS011;3413;47.680;9.166;2023-12-20T23:37:04;2.10;;;0.93;;
6751;SDS011;3413;47.680;9.166;2023-12-20T23:42:08;2.47;;;1.10;;
6751;SDS011;3413;47.680;9.166;2023-12-20T23:47:11;12.53;;;1.23;;
6751;SDS011;3413;47.680;9.166;2023-12-20T23:52:27;3.00;;;1.03;;
6751;SDS011;3413;47.680;9.166;2023-12-20T23:57:33;2.17;;;0.90;;
